sensor_id;sensor_type;location;lat;lon;timestamp;pressure;altitude;pressure_sealevel;temperature;humidity
42601;BME280;28229;48.856;9.088;2022-12-05T00:03:43;97743.84;;;1.56;100.00
42601;BME280;28229;48.856;9.088;2022-12-05T00:06:09;97752.28;;;1.58;100.00
42601;BME280;28229;48.856;9.088;2022-12-05T00:08:35;97751.28;;;1.67;100.00
42601;BME280;28229;48.856;9.088;2022-12-05T00:11:00;97751.59;;;1.64;100.00
42601;BME280;28229;48.856;9.088;2022-12-05T00:13:26;97746.75;;;1.61;100.00
42601;BME280;28229;48.856;9.088;2022-12-05T00:15:52;97747.09;;;1.58;100.00
42601;BME280;28229;48.856;9.088;2022-12-05T00:18:18;97748.38;;;1.62;100.00
42601;BME280;28229;48.856;9.088;2022-12-05T00:20:45;97743.53;;;1.59;100.00
42601;BME280;28229;48.856;9.088;2022-12-05T00:23:11;97740.59;;;1.62;100.00
42601;BME280;28229;48.856;9.088;2022-12-05T00:25:37;97737.34;;;1.60;100.00
42601;BME280;28229;48.856;9.088;2022-12-05T00:28:03;97738.81;;;1.62;100.00
42601;BME280;28229;48.856;9.088;2022-12-05T00:30:29;97742.53;;;1.60;100.00
42601;BME280;28229;48.856;9.088;2022-12-05T00:32:55;97738.16;;;1.60;100.00
42601;BME280;28229;48.856;9.088;2022-12-05T00:35:21;97736.03;;;1.64;100.00
42601;BME280;28229;48.856;9.088;2022-12-05T00:37:46;97736.88;;;1.64;100.00
42601;BME280;28229;48.856;9.088;2022-12-05T00:40:12;97738.81;;;1.62;100.00
42601;BME280;28229;48.856;9.088;2022-12-05T00:42:38;97737.66;;;1.65;100.00
42601;BME280;28229;48.856;9.088;2022-12-05T00:45:04;97744.81;;;1.63;100.00
42601;BME280;28229;48.856;9.088;2022-12-05T00:47:34;97740.09;;;1.66;100.00
42601;BME280;28229;48.856;9.088;2022-12-05T00:50:00;97751.44;;;1.65;100.00
42601;BME280;28229;48.856;9.088;2022-12-05T00:52:26;97751.13;;;1.60;100.00
42601;BME280;28229;48.856;9.088;2022-12-05T00:54:52;97757.13;;;1.61;100.00
42601;BME280;28229;48.856;9.088;2022-12-05T00:57:17;97757.47;;;1.58;100.00
42601;BME280;28229;48.856;9.088;2022-12-05T00:59:43;97762.97;;;1.55;100.00
42601;BME280;28229;48.856;9.088;2022-12-05T01:02:09;97767.81;;;1.58;100.00
42601;BME280;28229;48.856;9.088;2022-12-05T01:04:35;97760.38;;;1.55;100.00
42601;BME280;28229;48.856;9.088;2022-12-05T01:07:01;97768.63;;;1.58;100.00
42601;BME280;28229;48.856;9.088;2022-12-05T01:09:26;97769.47;;;1.59;100.00
42601;BME280;28229;48.856;9.088;2022-12-05T01:11:53;97783.69;;;1.55;100.00
42601;BME280;28229;48.856;9.088;2022-12-05T01:14:22;97779.81;;;1.50;100.00
42601;BME280;28229;48.856;9.088;2022-12-05T01:16:49;97777.25;;;1.59;100.00
42601;BME280;28229;48.856;9.088;2022-12-05T01:19:22;97768.78;;;1.57;100.00
42601;BME280;28229;48.856;9.088;2022-12-05T01:21:48;97774.97;;;1.56;100.00
42601;BME280;28229;48.856;9.088;2022-12-05T01:24:15;97779.84;;;1.59;100.00
42601;BME280;28229;48.856;9.088;2022-12-05T01:26:42;97800.41;;;1.52;100.00
42601;BME280;28229;48.856;9.088;2022-12-05T01:29:12;97797.00;;;1.60;100.00
42601;BME280;28229;48.856;9.088;2022-12-05T01:31:38;97801.88;;;1.46;100.00
42601;BME280;28229;48.856;9.088;2022-12-05T01:34:07;97797.97;;;1.59;100.00
42601;BME280;28229;48.856;9.088;2022-12-05T01:36:34;97799.25;;;1.55;100.00
42601;BME280;28229;48.856;9.088;2022-12-05T01:39:00;97800.88;;;1.64;100.00
42601;BME280;28229;48.856;9.088;2022-12-05T01:41:32;97809.16;;;1.59;100.00
42601;BME280;28229;48.856;9.088;2022-12-05T01:46:32;97797.97;;;1.67;100.00
42601;BME280;28229;48.856;9.088;2022-12-05T01:49:05;97787.59;;;1.67;100.00
42601;BME280;28229;48.856;9.088;2022-12-05T01:51:33;97786.47;;;1.69;100.00
42601;BME280;28229;48.856;9.088;2022-12-05T01:53:59;97797.00;;;1.60;100.00
42601;BME280;28229;48.856;9.088;2022-12-05T01:56:25;97806.41;;;1.52;100.00
42601;BME280;28229;48.856;9.088;2022-12-05T01:58:52;97814.66;;;1.48;100.00
42601;BME280;28229;48.856;9.088;2022-12-05T02:01:19;97792.47;;;1.54;100.00
42601;BME280;28229;48.856;9.088;2022-12-05T02:03:47;97802.19;;;1.43;100.00
42601;BME280;28229;48.856;9.088;2022-12-05T02:06:14;97812.72;;;1.50;100.00
42601;BME280;28229;48.856;9.088;2022-12-05T02:08:40;97816.44;;;1.39;100.00
42601;BME280;28229;48.856;9.088;2022-12-05T02:11:07;97809.47;;;1.48;100.00
42601;BME280;28229;48.856;9.088;2022-12-05T02:14:12;97810.94;;;1.50;100.00
42601;BME280;28229;48.856;9.088;2022-12-05T02:16:47;97815.47;;;1.48;100.00
42601;BME280;28229;48.856;9.088;2022-12-05T02:30:23;97820.66;;;1.48;100.00
42601;BME280;28229;48.856;9.088;2022-12-05T02:36:10;97828.28;;;1.50;100.00
42601;BME280;28229;48.856;9.088;2022-12-05T02:39:08;97837.50;;;1.52;100.00
42601;BME280;28229;48.856;9.088;2022-12-05T02:44:19;97861.97;;;1.58;100.00
42601;BME280;28229;48.856;9.088;2022-12-05T02:46:48;97862.47;;;1.54;100.00
42601;BME280;28229;48.856;9.088;2022-12-05T02:49:21;97853.06;;;1.52;100.00
42601;BME280;28229;48.856;9.088;2022-12-05T02:51:51;97870.56;;;1.50;100.00
42601;BME280;28229;48.856;9.088;2022-12-05T02:54:23;97865.06;;;1.54;100.00
42601;BME280;28229;48.856;9.088;2022-12-05T02:56:51;97863.44;;;1.52;100.00
42601;BME280;28229;48.856;9.088;2022-12-05T02:59:17;97861.47;;;1.55;100.00
42601;BME280;28229;48.856;9.088;2022-12-05T03:01:44;97857.94;;;1.56;100.00
42601;BME280;28229;48.856;9.088;2022-12-05T03:04:12;97866.84;;;1.61;100.00
42601;BME280;28229;48.856;9.088;2022-12-05T03:06:42;97866.53;;;1.64;100.00
42601;BME280;28229;48.856;9.088;2022-12-05T03:09:36;97882.88;;;1.65;100.00
42601;BME280;28229;48.856;9.088;2022-12-05T03:12:17;97877.69;;;1.65;100.00
42601;BME280;28229;48.856;9.088;2022-12-05T03:14:47;97874.78;;;1.68;100.00
42601;BME280;28229;48.856;9.088;2022-12-05T03:17:23;97858.25;;;1.61;100.00
42601;BME280;28229;48.856;9.088;2022-12-05T03:22:47;97850.97;;;1.64;100.00
42601;BME280;28229;48.856;9.088;2022-12-05T03:25:14;97849.19;;;1.73;100.00
42601;BME280;28229;48.856;9.088;2022-12-05T03:27:51;97834.09;;;1.77;100.00
42601;BME280;28229;48.856;9.088;2022-12-05T03:30:20;97833.44;;;1.83;100.00
42601;BME280;28229;48.856;9.088;2022-12-05T03:35:44;97842.38;;;1.80;100.00
42601;BME280;28229;48.856;9.088;2022-12-05T03:38:15;97849.50;;;1.70;100.00
42601;BME280;28229;48.856;9.088;2022-12-05T03:40:52;97845.59;;;1.74;100.00
42601;BME280;28229;48.856;9.088;2022-12-05T03:43:34;97848.19;;;1.82;100.00
42601;BME280;28229;48.856;9.088;2022-12-05T03:46:07;97846.56;;;1.81;100.00
42601;BME280;28229;48.856;9.088;2022-12-05T03:48:54;97860.19;;;1.83;100.00
42601;BME280;28229;48.856;9.088;2022-12-05T03:51:32;97861.81;;;1.84;100.00
42601;BME280;28229;48.856;9.088;2022-12-05T03:54:12;97859.88;;;1.86;100.00
42601;BME280;28229;48.856;9.088;2022-12-05T03:56:43;97852.28;;;1.77;100.00
42601;BME280;28229;48.856;9.088;2022-12-05T03:59:19;97854.38;;;1.73;100.00
42601;BME280;28229;48.856;9.088;2022-12-05T04:01:49;97849.16;;;1.81;100.00
42601;BME280;28229;48.856;9.088;2022-12-05T04:04:32;97848.53;;;1.79;100.00
42601;BME280;28229;48.856;9.088;2022-12-05T04:07:02;97854.19;;;1.83;100.00
42601;BME280;28229;48.856;9.088;2022-12-05T04:09:38;97857.44;;;1.85;100.00
42601;BME280;28229;48.856;9.088;2022-12-05T04:12:11;97855.16;;;1.90;100.00
42601;BME280;28229;48.856;9.088;2022-12-05T04:14:41;97848.03;;;1.92;100.00
42601;BME280;28229;48.856;9.088;2022-12-05T04:17:35;97847.53;;;1.97;100.00
42601;BME280;28229;48.856;9.088;2022-12-05T04:20:14;97851.56;;;1.99;100.00
42601;BME280;28229;48.856;9.088;2022-12-05T04:23:01;97854.00;;;2.01;100.00
42601;BME280;28229;48.856;9.088;2022-12-05T04:25:38;97857.88;;;2.05;100.00
42601;BME280;28229;48.856;9.088;2022-12-05T04:33:43;97865.34;;;2.16;100.00
42601;BME280;28229;48.856;9.088;2022-12-05T04:36:17;97876.06;;;2.13;100.00
42601;BME280;28229;48.856;9.088;2022-12-05T04:38:49;97877.69;;;2.06;100.00
42601;BME280;28229;48.856;9.088;2022-12-05T04:41:27;97873.63;;;2.12;100.00
42601;BME280;28229;48.856;9.088;2022-12-05T04:43:56;97876.53;;;2.08;100.00
42601;BME280;28229;48.856;9.088;2022-12-05T04:46:24;97881.88;;;2.15;100.00
42601;BME280;28229;48.856;9.088;2022-12-05T04:48:54;97883.84;;;2.13;100.00
42601;BME280;28229;48.856;9.088;2022-12-05T04:51:23;97882.38;;;2.27;100.00
42601;BME280;28229;48.856;9.088;2022-12-05T04:53:54;97880.41;;;2.21;100.00
42601;BME280;28229;48.856;9.088;2022-12-05T04:56:24;97888.69;;;2.24;100.00
42601;BME280;28229;48.856;9.088;2022-12-05T04:58:51;97889.78;;;2.38;100.00
42601;BME280;28229;48.856;9.088;2022-12-05T05:04:02;97889.31;;;2.35;100.00
42601;BME280;28229;48.856;9.088;2022-12-05T05:06:30;97890.13;;;2.35;100.00
42601;BME280;28229;48.856;9.088;2022-12-05T05:08:57;97891.91;;;2.35;100.00
42601;BME280;28229;48.856;9.088;2022-12-05T05:11:25;97889.31;;;2.35;100.00
42601;BME280;28229;48.856;9.088;2022-12-05T05:13:52;97890.28;;;2.42;100.00
42601;BME280;28229;48.856;9.088;2022-12-05T05:16:32;97884.28;;;2.41;100.00
42601;BME280;28229;48.856;9.088;2022-12-05T05:18:59;97881.84;;;2.40;100.00
42601;BME280;28229;48.856;9.088;2022-12-05T05:21:34;97903.41;;;2.40;100.00
42601;BME280;28229;48.856;9.088;2022-12-05T05:24:00;97903.59;;;2.31;100.00
42601;BME280;28229;48.856;9.088;2022-12-05T05:26:28;97910.75;;;2.28;100.00
42601;BME280;28229;48.856;9.088;2022-12-05T05:28:56;97905.22;;;2.32;100.00
42601;BME280;28229;48.856;9.088;2022-12-05T05:31:23;97905.72;;;2.27;100.00
42601;BME280;28229;48.856;9.088;2022-12-05T05:33:50;97904.72;;;2.28;100.00
42601;BME280;28229;48.856;9.088;2022-12-05T05:36:17;97916.28;;;2.25;100.00
42601;BME280;28229;48.856;9.088;2022-12-05T05:38:54;97926.34;;;2.28;100.00
42601;BME280;28229;48.856;9.088;2022-12-05T05:41:31;97924.69;;;2.27;100.00
42601;BME280;28229;48.856;9.088;2022-12-05T05:43:58;97925.03;;;2.24;100.00
42601;BME280;28229;48.856;9.088;2022-12-05T05:46:27;97927.94;;;2.29;100.00
42601;BME280;28229;48.856;9.088;2022-12-05T05:48:53;97929.72;;;2.37;100.00
42601;BME280;28229;48.856;9.088;2022-12-05T05:51:20;97927.94;;;2.29;100.00
42601;BME280;28229;48.856;9.088;2022-12-05T05:53:48;97933.47;;;2.26;100.00
42601;BME280;28229;48.856;9.088;2022-12-05T05:56:18;97933.31;;;2.20;100.00
42601;BME280;28229;48.856;9.088;2022-12-05T05:58:46;97942.22;;;2.34;100.00
42601;BME280;28229;48.856;9.088;2022-12-05T06:04:48;97942.53;;;2.39;100.00
42601;BME280;28229;48.856;9.088;2022-12-05T06:07:39;97935.88;;;2.36;100.00
42601;BME280;28229;48.856;9.088;2022-12-05T06:10:37;97937.03;;;2.34;100.00
42601;BME280;28229;48.856;9.088;2022-12-05T06:13:39;97922.41;;;2.41;100.00
42601;BME280;28229;48.856;9.088;2022-12-05T06:16:53;97919.16;;;2.39;100.00
42601;BME280;28229;48.856;9.088;2022-12-05T06:27:31;97941.25;;;2.35;100.00
42601;BME280;28229;48.856;9.088;2022-12-05T06:30:37;97942.88;;;2.36;100.00
42601;BME280;28229;48.856;9.088;2022-12-05T06:33:46;97939.91;;;2.47;100.00
42601;BME280;28229;48.856;9.088;2022-12-05T06:41:17;97963.47;;;2.37;100.00
42601;BME280;28229;48.856;9.088;2022-12-05T06:44:03;97971.75;;;2.24;100.00
42601;BME280;28229;48.856;9.088;2022-12-05T06:47:20;97973.22;;;2.27;100.00
42601;BME280;28229;48.856;9.088;2022-12-05T06:49:59;97974.53;;;2.23;100.00
42601;BME280;28229;48.856;9.088;2022-12-05T06:52:45;97978.72;;;2.16;100.00
42601;BME280;28229;48.856;9.088;2022-12-05T06:55:26;97982.13;;;2.24;100.00
42601;BME280;28229;48.856;9.088;2022-12-05T06:58:05;97982.31;;;2.23;100.00
42601;BME280;28229;48.856;9.088;2022-12-05T07:00:36;97984.44;;;2.19;100.00
42601;BME280;28229;48.856;9.088;2022-12-05T07:03:30;97999.47;;;2.16;100.00
42601;BME280;28229;48.856;9.088;2022-12-05T07:06:07;97994.81;;;2.19;100.00
42601;BME280;28229;48.856;9.088;2022-12-05T07:09:37;97995.78;;;2.26;100.00
42601;BME280;28229;48.856;9.088;2022-12-05T07:13:03;97990.25;;;2.38;100.00
42601;BME280;28229;48.856;9.088;2022-12-05T07:15:31;97983.75;;;2.42;100.00
42601;BME280;28229;48.856;9.088;2022-12-05T07:21:16;97993.31;;;2.66;100.00
42601;BME280;28229;48.856;9.088;2022-12-05T07:23:46;97990.75;;;3.05;100.00
42601;BME280;28229;48.856;9.088;2022-12-05T07:26:28;97991.16;;;3.26;100.00
42601;BME280;28229;48.856;9.088;2022-12-05T07:28:56;97989.75;;;3.15;100.00
42601;BME280;28229;48.856;9.088;2022-12-05T07:31:43;97994.31;;;3.13;100.00
42601;BME280;28229;48.856;9.088;2022-12-05T07:34:32;97995.81;;;3.07;100.00
42601;BME280;28229;48.856;9.088;2022-12-05T07:37:05;98009.97;;;2.88;100.00
42601;BME280;28229;48.856;9.088;2022-12-05T07:39:56;98015.84;;;2.74;100.00
42601;BME280;28229;48.856;9.088;2022-12-05T07:42:25;98008.06;;;2.74;100.00
42601;BME280;28229;48.856;9.088;2022-12-05T07:45:16;98016.16;;;2.79;100.00
42601;BME280;28229;48.856;9.088;2022-12-05T07:47:44;98026.56;;;2.79;100.00
42601;BME280;28229;48.856;9.088;2022-12-05T07:53:27;98020.88;;;2.75;100.00
42601;BME280;28229;48.856;9.088;2022-12-05T07:56:16;98015.53;;;2.77;100.00
42601;BME280;28229;48.856;9.088;2022-12-05T07:58:56;98003.78;;;2.97;100.00
42601;BME280;28229;48.856;9.088;2022-12-05T08:02:05;98015.47;;;3.01;100.00
42601;BME280;28229;48.856;9.088;2022-12-05T08:04:40;98014.16;;;3.05;100.00
42601;BME280;28229;48.856;9.088;2022-12-05T08:07:18;98017.88;;;3.03;100.00
42601;BME280;28229;48.856;9.088;2022-12-05T08:09:45;98021.94;;;3.05;100.00
42601;BME280;28229;48.856;9.088;2022-12-05T08:12:45;98018.88;;;3.10;100.00
42601;BME280;28229;48.856;9.088;2022-12-05T08:19:18;98017.66;;;3.29;100.00
42601;BME280;28229;48.856;9.088;2022-12-05T08:22:17;98033.19;;;3.46;100.00
42601;BME280;28229;48.856;9.088;2022-12-05T08:25:18;98037.41;;;3.47;100.00
42601;BME280;28229;48.856;9.088;2022-12-05T08:27:57;98041.34;;;3.42;100.00
42601;BME280;28229;48.856;9.088;2022-12-05T08:30:40;98041.81;;;3.46;100.00
42601;BME280;28229;48.856;9.088;2022-12-05T08:33:19;98047.03;;;3.38;100.00
42601;BME280;28229;48.856;9.088;2022-12-05T08:36:07;98058.38;;;3.45;100.00
42601;BME280;28229;48.856;9.088;2022-12-05T08:38:38;98050.28;;;3.40;100.00
42601;BME280;28229;48.856;9.088;2022-12-05T08:41:06;98056.00;;;3.35;100.00
42601;BME280;28229;48.856;9.088;2022-12-05T08:43:32;98060.69;;;3.40;100.00
42601;BME280;28229;48.856;9.088;2022-12-05T08:46:09;98062.78;;;3.45;100.00
42601;BME280;28229;48.856;9.088;2022-12-05T08:48:44;98066.66;;;3.49;100.00
42601;BME280;28229;48.856;9.088;2022-12-05T08:51:10;98071.88;;;3.49;100.00
42601;BME280;28229;48.856;9.088;2022-12-05T08:53:55;98077.22;;;3.55;100.00
42601;BME280;28229;48.856;9.088;2022-12-05T08:56:47;98072.50;;;3.51;100.00
42601;BME280;28229;48.856;9.088;2022-12-05T08:59:36;98067.66;;;3.48;100.00
42601;BME280;28229;48.856;9.088;2022-12-05T09:02:26;98079.34;;;3.52;100.00
42601;BME280;28229;48.856;9.088;2022-12-05T09:04:52;98076.53;;;3.61;100.00
42601;BME280;28229;48.856;9.088;2022-12-05T09:07:29;98070.50;;;3.61;100.00
42601;BME280;28229;48.856;9.088;2022-12-05T09:10:18;98076.00;;;3.74;100.00
42601;BME280;28229;48.856;9.088;2022-12-05T09:13:17;98078.22;;;3.86;100.00
42601;BME280;28229;48.856;9.088;2022-12-05T09:16:07;98071.00;;;3.96;100.00
42601;BME280;28229;48.856;9.088;2022-12-05T09:18:49;98078.75;;;4.04;100.00
42601;BME280;28229;48.856;9.088;2022-12-05T09:21:22;98077.44;;;4.08;100.00
42601;BME280;28229;48.856;9.088;2022-12-05T09:23:54;98092.72;;;4.11;100.00
42601;BME280;28229;48.856;9.088;2022-12-05T09:26:51;98100.19;;;4.14;100.00
42601;BME280;28229;48.856;9.088;2022-12-05T09:29:33;98107.50;;;4.19;100.00
42601;BME280;28229;48.856;9.088;2022-12-05T09:32:53;98124.25;;;4.16;100.00
42601;BME280;28229;48.856;9.088;2022-12-05T09:36:41;98111.19;;;4.25;100.00
42601;BME280;28229;48.856;9.088;2022-12-05T09:43:38;98112.81;;;4.26;100.00
42601;BME280;28229;48.856;9.088;2022-12-05T09:59:58;98106.59;;;4.35;100.00
42601;BME280;28229;48.856;9.088;2022-12-05T10:06:47;98122.84;;;4.37;100.00
42601;BME280;28229;48.856;9.088;2022-12-05T10:18:29;98126.09;;;4.39;100.00
42601;BME280;28229;48.856;9.088;2022-12-05T10:21:04;98129.63;;;4.46;100.00
42601;BME280;28229;48.856;9.088;2022-12-05T10:26:15;98129.06;;;4.51;100.00
42601;BME280;28229;48.856;9.088;2022-12-05T10:31:34;98120.47;;;4.50;100.00
42601;BME280;28229;48.856;9.088;2022-12-05T10:34:39;98118.84;;;4.49;100.00
42601;BME280;28229;48.856;9.088;2022-12-05T10:37:32;98119.13;;;4.54;100.00
42601;BME280;28229;48.856;9.088;2022-12-05T10:58:28;98088.66;;;4.78;99.64
42601;BME280;28229;48.856;9.088;2022-12-05T11:01:22;98099.13;;;4.93;99.75
42601;BME280;28229;48.856;9.088;2022-12-05T11:04:17;98095.53;;;4.94;97.83
42601;BME280;28229;48.856;9.088;2022-12-05T11:07:03;98103.91;;;5.04;96.97
42601;BME280;28229;48.856;9.088;2022-12-05T11:09:40;98102.31;;;5.18;96.85
42601;BME280;28229;48.856;9.088;2022-12-05T11:17:34;98099.44;;;5.43;96.07
42601;BME280;28229;48.856;9.088;2022-12-05T11:22:56;98107.91;;;5.45;94.65
42601;BME280;28229;48.856;9.088;2022-12-05T11:27:57;98108.97;;;5.65;93.04
42601;BME280;28229;48.856;9.088;2022-12-05T11:30:26;98093.78;;;5.69;92.40
42601;BME280;28229;48.856;9.088;2022-12-05T11:33:22;98085.03;;;5.77;91.88
42601;BME280;28229;48.856;9.088;2022-12-05T11:35:51;98080.69;;;5.84;92.28
42601;BME280;28229;48.856;9.088;2022-12-05T11:38:21;98079.97;;;5.90;91.27
42601;BME280;28229;48.856;9.088;2022-12-05T11:41:36;98080.69;;;5.84;90.93
42601;BME280;28229;48.856;9.088;2022-12-05T11:47:17;98083.09;;;6.00;89.75
42601;BME280;28229;48.856;9.088;2022-12-05T11:59:01;98079.03;;;6.34;87.31
42601;BME280;28229;48.856;9.088;2022-12-05T12:07:38;98080.16;;;6.68;86.04
42601;BME280;28229;48.856;9.088;2022-12-05T12:27:04;98080.53;;;6.93;83.63
42601;BME280;28229;48.856;9.088;2022-12-05T12:35:52;98086.91;;;6.84;82.23
42601;BME280;28229;48.856;9.088;2022-12-05T12:41:41;98076.78;;;6.74;83.37
42601;BME280;28229;48.856;9.088;2022-12-05T12:47:19;98078.41;;;6.75;83.74
42601;BME280;28229;48.856;9.088;2022-12-05T12:50:13;98072.81;;;6.57;81.69
42601;BME280;28229;48.856;9.088;2022-12-05T12:58:18;98066.22;;;6.61;85.26
42601;BME280;28229;48.856;9.088;2022-12-05T13:04:14;98065.66;;;6.65;84.82
42601;BME280;28229;48.856;9.088;2022-12-05T13:06:59;98074.19;;;6.74;85.84
42601;BME280;28229;48.856;9.088;2022-12-05T13:09:32;98067.06;;;6.68;84.85
42601;BME280;28229;48.856;9.088;2022-12-05T13:12:05;98071.06;;;6.64;85.10
42601;BME280;28229;48.856;9.088;2022-12-05T13:14:33;98069.06;;;6.66;85.97
42601;BME280;28229;48.856;9.088;2022-12-05T13:17:04;98073.88;;;6.62;86.52
42601;BME280;28229;48.856;9.088;2022-12-05T13:19:42;98069.84;;;6.60;86.53
42601;BME280;28229;48.856;9.088;2022-12-05T13:22:10;98074.44;;;6.58;86.69
42601;BME280;28229;48.856;9.088;2022-12-05T13:24:37;98066.84;;;6.41;87.21
42601;BME280;28229;48.856;9.088;2022-12-05T13:27:08;98068.09;;;6.24;86.75
42601;BME280;28229;48.856;9.088;2022-12-05T13:29:42;98068.34;;;6.29;87.96
42601;BME280;28229;48.856;9.088;2022-12-05T13:32:35;98059.00;;;6.20;87.43
42601;BME280;28229;48.856;9.088;2022-12-05T13:35:10;98053.66;;;6.06;87.57
42601;BME280;28229;48.856;9.088;2022-12-05T13:37:44;98064.94;;;5.92;88.68
42601;BME280;28229;48.856;9.088;2022-12-05T13:40:32;98064.75;;;5.94;89.80
42601;BME280;28229;48.856;9.088;2022-12-05T13:43:21;98068.16;;;5.94;91.38
42601;BME280;28229;48.856;9.088;2022-12-05T13:46:05;98071.47;;;5.88;90.82
42601;BME280;28229;48.856;9.088;2022-12-05T13:48:37;98072.59;;;5.79;91.46
42601;BME280;28229;48.856;9.088;2022-12-05T13:51:06;98073.06;;;5.67;91.93
42601;BME280;28229;48.856;9.088;2022-12-05T13:53:40;98080.16;;;5.73;92.54
42601;BME280;28229;48.856;9.088;2022-12-05T13:58:46;98087.16;;;5.88;91.75
42601;BME280;28229;48.856;9.088;2022-12-05T14:01:45;98089.13;;;5.86;90.87
42601;BME280;28229;48.856;9.088;2022-12-05T14:04:42;98094.81;;;5.89;90.47
42601;BME280;28229;48.856;9.088;2022-12-05T14:07:10;98089.22;;;5.93;90.01
42601;BME280;28229;48.856;9.088;2022-12-05T14:09:52;98099.03;;;5.90;89.60
42601;BME280;28229;48.856;9.088;2022-12-05T14:14:57;98110.91;;;5.93;88.79
42601;BME280;28229;48.856;9.088;2022-12-05T14:17:28;98105.06;;;5.91;89.06
42601;BME280;28229;48.856;9.088;2022-12-05T14:34:53;98114.38;;;5.49;90.97
42601;BME280;28229;48.856;9.088;2022-12-05T14:37:44;98113.47;;;5.42;90.79
42601;BME280;28229;48.856;9.088;2022-12-05T14:40:35;98116.81;;;5.36;91.24
42601;BME280;28229;48.856;9.088;2022-12-05T14:43:05;98120.66;;;5.40;91.42
42601;BME280;28229;48.856;9.088;2022-12-05T14:45:35;98122.28;;;5.41;90.80
42601;BME280;28229;48.856;9.088;2022-12-05T14:55:52;98125.88;;;5.40;92.21
42601;BME280;28229;48.856;9.088;2022-12-05T14:58:25;98119.25;;;5.37;92.65
42601;BME280;28229;48.856;9.088;2022-12-05T15:03:56;98114.75;;;5.46;93.00
42601;BME280;28229;48.856;9.088;2022-12-05T15:06:23;98122.41;;;5.47;92.57
42601;BME280;28229;48.856;9.088;2022-12-05T15:08:54;98120.41;;;5.49;92.53
42601;BME280;28229;48.856;9.088;2022-12-05T15:11:23;98115.66;;;5.53;92.49
42601;BME280;28229;48.856;9.088;2022-12-05T15:16:29;98122.28;;;5.56;92.65
42601;BME280;28229;48.856;9.088;2022-12-05T15:19:03;98120.41;;;5.49;92.78
42601;BME280;28229;48.856;9.088;2022-12-05T15:21:47;98125.81;;;5.48;93.32
42601;BME280;28229;48.856;9.088;2022-12-05T15:24:17;98128.41;;;5.48;92.24
42601;BME280;28229;48.856;9.088;2022-12-05T15:26:53;98129.03;;;5.50;92.52
42601;BME280;28229;48.856;9.088;2022-12-05T15:31:53;98126.63;;;5.48;91.96
42601;BME280;28229;48.856;9.088;2022-12-05T15:37:26;98135.00;;;5.44;93.02
42601;BME280;28229;48.856;9.088;2022-12-05T15:42:44;98136.31;;;5.40;92.76
42601;BME280;28229;48.856;9.088;2022-12-05T15:47:36;98133.44;;;5.34;92.46
42601;BME280;28229;48.856;9.088;2022-12-05T15:50:02;98131.47;;;5.37;93.12
42601;BME280;28229;48.856;9.088;2022-12-05T15:52:35;98135.41;;;5.32;93.35
42601;BME280;28229;48.856;9.088;2022-12-05T15:55:07;98140.34;;;5.27;93.13
42601;BME280;28229;48.856;9.088;2022-12-05T15:57:47;98138.28;;;5.23;93.37
42601;BME280;28229;48.856;9.088;2022-12-05T16:00:17;98149.34;;;5.25;93.32
42601;BME280;28229;48.856;9.088;2022-12-05T16:02:53;98148.56;;;5.24;93.25
42601;BME280;28229;48.856;9.088;2022-12-05T16:07:53;98150.88;;;5.19;93.74
42601;BME280;28229;48.856;9.088;2022-12-05T16:10:20;98149.69;;;5.22;94.03
42601;BME280;28229;48.856;9.088;2022-12-05T16:12:47;98151.69;;;5.20;94.26
42601;BME280;28229;48.856;9.088;2022-12-05T16:15:19;98159.00;;;5.24;94.03
42601;BME280;28229;48.856;9.088;2022-12-05T16:17:47;98158.31;;;5.22;94.07
42601;BME280;28229;48.856;9.088;2022-12-05T16:23:03;98161.31;;;5.19;93.74
42601;BME280;28229;48.856;9.088;2022-12-05T16:25:35;98165.69;;;5.19;94.07
42601;BME280;28229;48.856;9.088;2022-12-05T16:30:34;98167.84;;;5.15;94.11
42601;BME280;28229;48.856;9.088;2022-12-05T16:33:21;98164.25;;;5.16;94.30
42601;BME280;28229;48.856;9.088;2022-12-05T16:35:47;98171.00;;;5.10;94.57
42601;BME280;28229;48.856;9.088;2022-12-05T16:38:23;98170.47;;;5.15;94.42
42601;BME280;28229;48.856;9.088;2022-12-05T16:41:03;98176.13;;;5.19;93.77
42601;BME280;28229;48.856;9.088;2022-12-05T16:43:45;98179.28;;;5.14;94.08
42601;BME280;28229;48.856;9.088;2022-12-05T16:49:18;98180.97;;;5.07;94.72
42601;BME280;28229;48.856;9.088;2022-12-05T16:51:54;98174.97;;;5.21;94.94
42601;BME280;28229;48.856;9.088;2022-12-05T16:54:20;98178.94;;;5.17;93.31
42601;BME280;28229;48.856;9.088;2022-12-05T16:56:46;98181.25;;;5.12;93.40
42601;BME280;28229;48.856;9.088;2022-12-05T16:59:19;98179.34;;;5.06;92.37
42601;BME280;28229;48.856;9.088;2022-12-05T17:01:46;98180.06;;;5.00;93.00
42601;BME280;28229;48.856;9.088;2022-12-05T17:04:12;98175.97;;;4.97;94.19
42601;BME280;28229;48.856;9.088;2022-12-05T17:06:38;98173.75;;;4.94;94.69
42601;BME280;28229;48.856;9.088;2022-12-05T17:09:04;98170.97;;;4.95;93.90
42601;BME280;28229;48.856;9.088;2022-12-05T17:11:31;98178.50;;;4.90;93.80
42601;BME280;28229;48.856;9.088;2022-12-05T17:13:58;98174.91;;;4.91;94.20
42601;BME280;28229;48.856;9.088;2022-12-05T17:16:25;98176.56;;;4.84;94.08
42601;BME280;28229;48.856;9.088;2022-12-05T17:18:51;98181.16;;;4.82;94.65
42601;BME280;28229;48.856;9.088;2022-12-05T17:21:22;98181.63;;;4.86;94.38
42601;BME280;28229;48.856;9.088;2022-12-05T17:23:49;98181.97;;;4.83;94.41
42601;BME280;28229;48.856;9.088;2022-12-05T17:26:17;98181.50;;;4.79;94.66
42601;BME280;28229;48.856;9.088;2022-12-05T17:28:44;98178.59;;;4.74;95.11
42601;BME280;28229;48.856;9.088;2022-12-05T17:31:18;98178.97;;;4.71;95.38
42601;BME280;28229;48.856;9.088;2022-12-05T17:33:49;98183.72;;;4.67;95.69
42601;BME280;28229;48.856;9.088;2022-12-05T17:36:15;98178.84;;;4.64;95.70
42601;BME280;28229;48.856;9.088;2022-12-05T17:38:42;98183.88;;;4.66;96.13
42601;BME280;28229;48.856;9.088;2022-12-05T17:41:22;98183.13;;;4.57;96.43
42601;BME280;28229;48.856;9.088;2022-12-05T17:43:48;98188.00;;;4.60;96.58
42601;BME280;28229;48.856;9.088;2022-12-05T17:46:18;98191.09;;;4.55;97.11
42601;BME280;28229;48.856;9.088;2022-12-05T17:48:45;98185.25;;;4.53;97.25